sensor_id;sensor_type;location;lat;lon;timestamp;pressure;altitude;pressure_sealevel;temperature;humidity
7662;BME280;30314;48.184;11.510;2022-09-21T00:01:04;96658.88;;;5.61;100.00
7662;BME280;30314;48.184;11.510;2022-09-21T00:03:32;96664.09;;;5.61;100.00
7662;BME280;30314;48.184;11.510;2022-09-21T00:06:04;96663.56;;;5.59;100.00
7662;BME280;30314;48.184;11.510;2022-09-21T00:08:32;96661.97;;;5.58;100.00
7662;BME280;30314;48.184;11.510;2022-09-21T00:11:01;96658.88;;;5.61;100.00
7662;BME280;30314;48.184;11.510;2022-09-21T00:13:31;96648.38;;;5.61;100.00
7662;BME280;30314;48.184;11.510;2022-09-21T00:16:00;96660.53;;;5.67;100.00
7662;BME280;30314;48.184;11.510;2022-09-21T00:18:31;96655.53;;;5.66;100.00
7662;BME280;30314;48.184;11.510;2022-09-21T00:20:59;96656.31;;;5.66;100.00
7662;BME280;30314;48.184;11.510;2022-09-21T00:23:27;96629.59;;;5.52;100.00
7662;BME280;30314;48.184;11.510;2022-09-21T00:26:05;96650.56;;;5.69;100.00
7662;BME280;30314;48.184;11.510;2022-09-21T00:28:33;96658.44;;;5.69;100.00
7662;BME280;30314;48.184;11.510;2022-09-21T00:31:02;96646.06;;;5.64;100.00
7662;BME280;30314;48.184;11.510;2022-09-21T00:33:29;96648.28;;;5.73;100.00
7662;BME280;30314;48.184;11.510;2022-09-21T00:36:01;96636.59;;;5.63;100.00
7662;BME280;30314;48.184;11.510;2022-09-21T00:38:29;96648.53;;;5.71;100.00
7662;BME280;30314;48.184;11.510;2022-09-21T00:40:56;96656.25;;;5.78;100.00
7662;BME280;30314;48.184;11.510;2022-09-21T00:43:26;96657.66;;;5.69;100.00
7662;BME280;30314;48.184;11.510;2022-09-21T00:45:58;96651.88;;;5.67;100.00
7662;BME280;30314;48.184;11.510;2022-09-21T00:48:28;96655.69;;;5.59;100.00
7662;BME280;30314;48.184;11.510;2022-09-21T00:50:58;96651.22;;;5.59;100.00
7662;BME280;30314;48.184;11.510;2022-09-21T00:53:30;96665.38;;;5.58;100.00
7662;BME280;30314;48.184;11.510;2022-09-21T00:55:59;96655.84;;;5.52;100.00
7662;BME280;30314;48.184;11.510;2022-09-21T00:58:32;96642.22;;;5.38;100.00
7662;BME280;30314;48.184;11.510;2022-09-21T01:01:00;96669.88;;;5.46;100.00
7662;BME280;30314;48.184;11.510;2022-09-21T01:03:29;96662.97;;;5.40;100.00
7662;BME280;30314;48.184;11.510;2022-09-21T01:05:57;96657.00;;;5.27;100.00
7662;BME280;30314;48.184;11.510;2022-09-21T01:08:25;96663.81;;;5.28;100.00
7662;BME280;30314;48.184;11.510;2022-09-21T01:11:08;96655.31;;;5.21;100.00
7662;BME280;30314;48.184;11.510;2022-09-21T01:13:49;96657.22;;;5.26;100.00
7662;BME280;30314;48.184;11.510;2022-09-21T01:16:20;96657.91;;;5.21;100.00
7662;BME280;30314;48.184;11.510;2022-09-21T01:18:56;96656.81;;;5.17;100.00
7662;BME280;30314;48.184;11.510;2022-09-21T01:21:30;96659.66;;;5.15;100.00
7662;BME280;30314;48.184;11.510;2022-09-21T01:24:16;96660.22;;;5.17;100.00
7662;BME280;30314;48.184;11.510;2022-09-21T01:29:47;96654.81;;;5.07;100.00
7662;BME280;30314;48.184;11.510;2022-09-21T01:32:21;96654.34;;;5.10;100.00
7662;BME280;30314;48.184;11.510;2022-09-21T01:34:53;96649.56;;;5.07;100.00
7662;BME280;30314;48.184;11.510;2022-09-21T01:37:24;96634.34;;;4.92;100.00
7662;BME280;30314;48.184;11.510;2022-09-21T01:39:55;96658.59;;;4.99;100.00
7662;BME280;30314;48.184;11.510;2022-09-21T01:42:27;96653.03;;;4.96;100.00
7662;BME280;30314;48.184;11.510;2022-09-21T01:45:01;96653.72;;;4.91;100.00
7662;BME280;30314;48.184;11.510;2022-09-21T01:47:31;96659.09;;;4.84;100.00
7662;BME280;30314;48.184;11.510;2022-09-21T01:50:02;96649.94;;;4.70;100.00
7662;BME280;30314;48.184;11.510;2022-09-21T01:52:36;96655.94;;;4.70;100.00
7662;BME280;30314;48.184;11.510;2022-09-21T01:55:09;96640.63;;;4.50;100.00
7662;BME280;30314;48.184;11.510;2022-09-21T01:57:44;96658.47;;;4.65;100.00
7662;BME280;30314;48.184;11.510;2022-09-21T02:00:17;96656.53;;;4.60;100.00
7662;BME280;30314;48.184;11.510;2022-09-21T02:02:48;96661.22;;;4.58;100.00
7662;BME280;30314;48.184;11.510;2022-09-21T02:05:19;96662.25;;;4.57;100.00
7662;BME280;30314;48.184;11.510;2022-09-21T02:07:50;96659.06;;;4.55;100.00
7662;BME280;30314;48.184;11.510;2022-09-21T02:10:21;96664.66;;;4.47;100.00
7662;BME280;30314;48.184;11.510;2022-09-21T02:12:52;96662.38;;;4.50;100.00
7662;BME280;30314;48.184;11.510;2022-09-21T02:15:29;96658.63;;;4.46;100.00
7662;BME280;30314;48.184;11.510;2022-09-21T02:18:03;96653.63;;;4.45;100.00
7662;BME280;30314;48.184;11.510;2022-09-21T02:20:36;96655.47;;;4.32;100.00
7662;BME280;30314;48.184;11.510;2022-09-21T02:23:11;96651.81;;;4.33;100.00
7662;BME280;30314;48.184;11.510;2022-09-21T02:25:45;96654.69;;;4.32;100.00
7662;BME280;30314;48.184;11.510;2022-09-21T02:28:27;96658.19;;;4.26;100.00
7662;BME280;30314;48.184;11.510;2022-09-21T02:31:02;96659.56;;;4.28;100.00
7662;BME280;30314;48.184;11.510;2022-09-21T02:33:39;96655.59;;;4.26;100.00
7662;BME280;30314;48.184;11.510;2022-09-21T02:36:16;96659.56;;;4.28;100.00
7662;BME280;30314;48.184;11.510;2022-09-21T02:38:49;96662.75;;;4.30;100.00
7662;BME280;30314;48.184;11.510;2022-09-21T02:41:23;96652.41;;;4.23;100.00
7662;BME280;30314;48.184;11.510;2022-09-21T02:43:58;96661.75;;;4.19;100.00
7662;BME280;30314;48.184;11.510;2022-09-21T02:46:35;96656.03;;;4.11;100.00
7662;BME280;30314;48.184;11.510;2022-09-21T02:49:06;96667.19;;;4.18;100.00
7662;BME280;30314;48.184;11.510;2022-09-21T02:51:39;96669.38;;;4.09;100.00
7662;BME280;30314;48.184;11.510;2022-09-21T02:54:10;96665.38;;;4.06;100.00
7662;BME280;30314;48.184;11.510;2022-09-21T02:56:41;96665.28;;;4.01;100.00
7662;BME280;30314;48.184;11.510;2022-09-21T02:59:09;96658.88;;;3.97;100.00
7662;BME280;30314;48.184;11.510;2022-09-21T03:01:39;96664.34;;;4.07;100.00
7662;BME280;30314;48.184;11.510;2022-09-21T03:04:07;96673.13;;;4.01;100.00
7662;BME280;30314;48.184;11.510;2022-09-21T03:06:35;96663.22;;;4.03;100.00
7662;BME280;30314;48.184;11.510;2022-09-21T03:09:03;96666.16;;;3.95;100.00
7662;BME280;30314;48.184;11.510;2022-09-21T03:11:31;96674.69;;;3.90;100.00
7662;BME280;30314;48.184;11.510;2022-09-21T03:13:59;96672.31;;;3.89;100.00
7662;BME280;30314;48.184;11.510;2022-09-21T03:16:27;96671.75;;;3.87;100.00
7662;BME280;30314;48.184;11.510;2022-09-21T03:18:56;96662.84;;;3.76;100.00
7662;BME280;30314;48.184;11.510;2022-09-21T03:21:24;96675.81;;;3.83;100.00
7662;BME280;30314;48.184;11.510;2022-09-21T03:23:53;96659.31;;;3.70;100.00
7662;BME280;30314;48.184;11.510;2022-09-21T03:26:20;96679.81;;;3.85;100.00
7662;BME280;30314;48.184;11.510;2022-09-21T03:28:48;96677.78;;;3.75;100.00
7662;BME280;30314;48.184;11.510;2022-09-21T03:31:16;96648.75;;;3.53;100.00
7662;BME280;30314;48.184;11.510;2022-09-21T03:33:44;96672.84;;;3.55;100.00
7662;BME280;30314;48.184;11.510;2022-09-21T03:36:13;96679.44;;;3.58;100.00
7662;BME280;30314;48.184;11.510;2022-09-21T03:38:41;96677.16;;;3.61;100.00
7662;BME280;30314;48.184;11.510;2022-09-21T03:41:09;96663.50;;;3.47;100.00
7662;BME280;30314;48.184;11.510;2022-09-21T03:43:37;96670.91;;;3.62;100.00
7662;BME280;30314;48.184;11.510;2022-09-21T03:46:05;96668.44;;;3.67;100.00
7662;BME280;30314;48.184;11.510;2022-09-21T03:48:32;96666.03;;;3.66;100.00
7662;BME280;30314;48.184;11.510;2022-09-21T03:51:00;96668.97;;;3.58;100.00
7662;BME280;30314;48.184;11.510;2022-09-21T03:53:29;96674.44;;;3.56;100.00
7662;BME280;30314;48.184;11.510;2022-09-21T03:55:56;96670.91;;;3.50;100.00
7662;BME280;30314;48.184;11.510;2022-09-21T03:58:24;96672.22;;;3.41;100.00
7662;BME280;30314;48.184;11.510;2022-09-21T04:00:52;96677.47;;;3.41;100.00
7662;BME280;30314;48.184;11.510;2022-09-21T04:03:19;96658.56;;;3.27;100.00
7662;BME280;30314;48.184;11.510;2022-09-21T04:05:47;96671.28;;;3.23;100.00
7662;BME280;30314;48.184;11.510;2022-09-21T04:08:15;96678.59;;;3.33;100.00
7662;BME280;30314;48.184;11.510;2022-09-21T04:10:44;96682.44;;;3.31;100.00
7662;BME280;30314;48.184;11.510;2022-09-21T04:13:11;96674.59;;;3.31;100.00
7662;BME280;30314;48.184;11.510;2022-09-21T04:15:39;96685.66;;;3.33;100.00
7662;BME280;30314;48.184;11.510;2022-09-21T04:18:07;96682.44;;;3.31;100.00
7662;BME280;30314;48.184;11.510;2022-09-21T04:20:34;96687.31;;;3.27;100.00
7662;BME280;30314;48.184;11.510;2022-09-21T04:23:02;96683.13;;;3.26;100.00
7662;BME280;30314;48.184;11.510;2022-09-21T04:25:30;96685.75;;;3.26;100.00
7662;BME280;30314;48.184;11.510;2022-09-21T04:28:00;96687.53;;;3.26;100.00
7662;BME280;30314;48.184;11.510;2022-09-21T04:30:28;96686.59;;;3.20;100.00
7662;BME280;30314;48.184;11.510;2022-09-21T04:33:03;96686.41;;;3.21;100.00
7662;BME280;30314;48.184;11.510;2022-09-21T04:35:30;96684.44;;;3.17;100.00
7662;BME280;30314;48.184;11.510;2022-09-21T04:37:58;96691.06;;;3.19;100.00
7662;BME280;30314;48.184;11.510;2022-09-21T04:40:26;96689.88;;;3.15;100.00
7662;BME280;30314;48.184;11.510;2022-09-21T04:42:54;96691.91;;;3.13;100.00
7662;BME280;30314;48.184;11.510;2022-09-21T04:45:23;96684.84;;;3.02;100.00
7662;BME280;30314;48.184;11.510;2022-09-21T04:47:51;96692.47;;;3.03;100.00
7662;BME280;30314;48.184;11.510;2022-09-21T04:50:18;96688.69;;;2.99;100.00
7662;BME280;30314;48.184;11.510;2022-09-21T04:52:46;96695.84;;;3.04;100.00
7662;BME280;30314;48.184;11.510;2022-09-21T04:55:14;96702.53;;;3.00;100.00
7662;BME280;30314;48.184;11.510;2022-09-21T04:57:42;96699.56;;;2.96;100.00
7662;BME280;30314;48.184;11.510;2022-09-21T05:00:10;96708.78;;;2.99;100.00
7662;BME280;30314;48.184;11.510;2022-09-21T05:02:39;96710.84;;;2.96;100.00
7662;BME280;30314;48.184;11.510;2022-09-21T05:05:07;96712.53;;;3.03;100.00
7662;BME280;30314;48.184;11.510;2022-09-21T05:07:35;96718.22;;;3.00;100.00
7662;BME280;30314;48.184;11.510;2022-09-21T05:10:03;96708.38;;;2.83;100.00
7662;BME280;30314;48.184;11.510;2022-09-21T05:12:30;96719.44;;;2.97;100.00
7662;BME280;30314;48.184;11.510;2022-09-21T05:14:58;96730.72;;;2.98;100.00
7662;BME280;30314;48.184;11.510;2022-09-21T05:17:26;96727.06;;;2.99;100.00
7662;BME280;30314;48.184;11.510;2022-09-21T05:19:55;96730.72;;;2.98;100.00
7662;BME280;30314;48.184;11.510;2022-09-21T05:22:23;96729.56;;;2.93;100.00
7662;BME280;30314;48.184;11.510;2022-09-21T05:24:51;96727.97;;;2.92;100.00
7662;BME280;30314;48.184;11.510;2022-09-21T05:27:18;96722.31;;;2.95;100.00
7662;BME280;30314;48.184;11.510;2022-09-21T05:29:46;96722.50;;;2.94;100.00
7662;BME280;30314;48.184;11.510;2022-09-21T05:32:19;96729.47;;;3.00;100.00
7662;BME280;30314;48.184;11.510;2022-09-21T05:34:53;96735.50;;;3.01;100.00
7662;BME280;30314;48.184;11.510;2022-09-21T05:37:42;96723.25;;;3.01;100.00
7662;BME280;30314;48.184;11.510;2022-09-21T05:40:13;96724.59;;;3.04;100.00
7662;BME280;30314;48.184;11.510;2022-09-21T05:42:41;96728.38;;;3.08;100.00
7662;BME280;30314;48.184;11.510;2022-09-21T05:45:13;96732.34;;;3.10;100.00
7662;BME280;30314;48.184;11.510;2022-09-21T05:47:52;96711.69;;;3.09;100.00
7662;BME280;30314;48.184;11.510;2022-09-21T05:50:33;96729.34;;;3.26;100.00
7662;BME280;30314;48.184;11.510;2022-09-21T05:53:18;96727.31;;;3.28;100.00
7662;BME280;30314;48.184;11.510;2022-09-21T05:55:54;96724.63;;;3.34;100.00
7662;BME280;30314;48.184;11.510;2022-09-21T05:58:28;96724.53;;;3.41;100.00
7662;BME280;30314;48.184;11.510;2022-09-21T06:01:09;96721.47;;;3.44;100.00
7662;BME280;30314;48.184;11.510;2022-09-21T06:03:41;96733.91;;;3.61;100.00
7662;BME280;30314;48.184;11.510;2022-09-21T06:06:09;96732.91;;;3.62;100.00
7662;BME280;30314;48.184;11.510;2022-09-21T06:08:38;96745.53;;;3.65;100.00
7662;BME280;30314;48.184;11.510;2022-09-21T06:11:05;96737.56;;;3.72;100.00
7662;BME280;30314;48.184;11.510;2022-09-21T06:13:35;96735.44;;;3.80;100.00
7662;BME280;30314;48.184;11.510;2022-09-21T06:16:04;96738.41;;;3.84;100.00
7662;BME280;30314;48.184;11.510;2022-09-21T06:18:36;96741.38;;;3.88;100.00
7662;BME280;30314;48.184;11.510;2022-09-21T06:21:04;96737.06;;;3.93;100.00
7662;BME280;30314;48.184;11.510;2022-09-21T06:23:33;96723.38;;;3.91;100.00
7662;BME280;30314;48.184;11.510;2022-09-21T06:26:02;96746.19;;;4.15;100.00
7662;BME280;30314;48.184;11.510;2022-09-21T06:28:30;96748.59;;;4.28;100.00
7662;BME280;30314;48.184;11.510;2022-09-21T06:30:58;96748.13;;;4.31;100.00
7662;BME280;30314;48.184;11.510;2022-09-21T06:33:26;96745.16;;;4.40;100.00
7662;BME280;30314;48.184;11.510;2022-09-21T06:35:55;96731.94;;;4.34;100.00
7662;BME280;30314;48.184;11.510;2022-09-21T06:38:23;96754.47;;;4.59;100.00
7662;BME280;30314;48.184;11.510;2022-09-21T06:40:52;96758.22;;;4.75;100.00
7662;BME280;30314;48.184;11.510;2022-09-21T06:43:21;96762.53;;;4.82;100.00
7662;BME280;30314;48.184;11.510;2022-09-21T06:45:52;96758.63;;;4.96;100.00
7662;BME280;30314;48.184;11.510;2022-09-21T06:48:20;96763.41;;;5.11;100.00
7662;BME280;30314;48.184;11.510;2022-09-21T06:50:49;96765.09;;;5.17;100.00
7662;BME280;30314;48.184;11.510;2022-09-21T06:53:16;96752.44;;;5.26;100.00
7662;BME280;30314;48.184;11.510;2022-09-21T06:55:44;96754.50;;;5.41;100.00
7662;BME280;30314;48.184;11.510;2022-09-21T06:58:12;96751.84;;;5.53;100.00
7662;BME280;30314;48.184;11.510;2022-09-21T07:00:41;96763.81;;;5.61;100.00
7662;BME280;30314;48.184;11.510;2022-09-21T07:03:09;96757.13;;;5.70;100.00
7662;BME280;30314;48.184;11.510;2022-09-21T07:05:37;96760.31;;;5.89;100.00
7662;BME280;30314;48.184;11.510;2022-09-21T07:08:05;96758.56;;;6.07;100.00
7662;BME280;30314;48.184;11.510;2022-09-21T07:10:56;96761.47;;;6.28;100.00
7662;BME280;30314;48.184;11.510;2022-09-21T07:13:24;96743.03;;;6.40;100.00
7662;BME280;30314;48.184;11.510;2022-09-21T07:15:54;96755.91;;;7.03;100.00
7662;BME280;30314;48.184;11.510;2022-09-21T07:18:22;96763.34;;;7.83;100.00
7662;BME280;30314;48.184;11.510;2022-09-21T07:20:49;96759.03;;;8.42;100.00
7662;BME280;30314;48.184;11.510;2022-09-21T07:23:18;96758.38;;;8.57;100.00
7662;BME280;30314;48.184;11.510;2022-09-21T07:25:48;96745.25;;;8.68;100.00
7662;BME280;30314;48.184;11.510;2022-09-21T07:28:18;96766.66;;;9.35;100.00
7662;BME280;30314;48.184;11.510;2022-09-21T07:30:46;96754.03;;;9.63;100.00
7662;BME280;30314;48.184;11.510;2022-09-21T07:33:15;96757.97;;;9.61;100.00
7662;BME280;30314;48.184;11.510;2022-09-21T07:35:49;96761.38;;;9.40;100.00
7662;BME280;30314;48.184;11.510;2022-09-21T07:38:17;96751.09;;;9.44;100.00
7662;BME280;30314;48.184;11.510;2022-09-21T07:40:45;96765.59;;;9.36;100.00
7662;BME280;30314;48.184;11.510;2022-09-21T07:43:12;96750.44;;;9.00;100.00
7662;BME280;30314;48.184;11.510;2022-09-21T07:45:40;96767.03;;;8.96;100.00
7662;BME280;30314;48.184;11.510;2022-09-21T07:48:08;96762.69;;;8.74;100.00
7662;BME280;30314;48.184;11.510;2022-09-21T07:50:37;96765.84;;;8.71;100.00
7662;BME280;30314;48.184;11.510;2022-09-21T07:53:05;96763.25;;;8.76;100.00
7662;BME280;30314;48.184;11.510;2022-09-21T07:55:32;96752.41;;;8.72;100.00
7662;BME280;30314;48.184;11.510;2022-09-21T07:58:00;96765.09;;;8.81;100.00
7662;BME280;30314;48.184;11.510;2022-09-21T08:00:45;96764.84;;;8.82;100.00
7662;BME280;30314;48.184;11.510;2022-09-21T08:03:13;96764.38;;;8.96;100.00
7662;BME280;30314;48.184;11.510;2022-09-21T08:05:42;96768.50;;;9.45;100.00
7662;BME280;30314;48.184;11.510;2022-09-21T08:08:10;96766.47;;;9.83;100.00
7662;BME280;30314;48.184;11.510;2022-09-21T08:10:37;96758.31;;;10.00;100.00
7662;BME280;30314;48.184;11.510;2022-09-21T08:13:05;96758.31;;;10.11;100.00
7662;BME280;30314;48.184;11.510;2022-09-21T08:15:33;96764.91;;;10.24;100.00
7662;BME280;30314;48.184;11.510;2022-09-21T08:18:15;96761.19;;;10.14;100.00
7662;BME280;30314;48.184;11.510;2022-09-21T08:20:52;96759.38;;;9.99;100.00
7662;BME280;30314;48.184;11.510;2022-09-21T08:23:20;96761.22;;;9.94;100.00
7662;BME280;30314;48.184;11.510;2022-09-21T08:25:50;96763.56;;;9.90;100.00
7662;BME280;30314;48.184;11.510;2022-09-21T08:28:18;96760.13;;;9.74;100.00
7662;BME280;30314;48.184;11.510;2022-09-21T08:30:46;96767.78;;;9.76;100.00
7662;BME280;30314;48.184;11.510;2022-09-21T08:33:13;96769.38;;;9.77;100.00
7662;BME280;30314;48.184;11.510;2022-09-21T08:35:41;96775.72;;;9.81;100.00
7662;BME280;30314;48.184;11.510;2022-09-21T08:38:10;96767.25;;;9.79;100.00
7662;BME280;30314;48.184;11.510;2022-09-21T08:40:39;96775.19;;;9.79;100.00
7662;BME280;30314;48.184;11.510;2022-09-21T08:43:08;96780.72;;;9.87;100.00
7662;BME280;30314;48.184;11.510;2022-09-21T08:45:40;96777.03;;;9.83;100.00
7662;BME280;30314;48.184;11.510;2022-09-21T08:48:13;96772.81;;;9.82;100.00
7662;BME280;30314;48.184;11.510;2022-09-21T08:50:51;96780.72;;;9.87;100.00
7662;BME280;30314;48.184;11.510;2022-09-21T08:53:25;96777.88;;;10.10;100.00
7662;BME280;30314;48.184;11.510;2022-09-21T08:55:57;96773.34;;;10.10;100.00
7662;BME280;30314;48.184;11.510;2022-09-21T08:58:26;96780.75;;;10.08;100.00
7662;BME280;30314;48.184;11.510;2022-09-21T09:01:04;96775.75;;;10.17;100.00
7662;BME280;30314;48.184;11.510;2022-09-21T09:03:51;96772.31;;;10.22;100.00
7662;BME280;30314;48.184;11.510;2022-09-21T09:06:24;96771.53;;;10.37;99.82
7662;BME280;30314;48.184;11.510;2022-09-21T09:09:18;96763.56;;;10.57;100.00
7662;BME280;30314;48.184;11.510;2022-09-21T09:12:00;96762.00;;;10.62;100.00
7662;BME280;30314;48.184;11.510;2022-09-21T09:14:52;96765.66;;;10.76;100.00
7662;BME280;30314;48.184;11.510;2022-09-21T09:17:38;96744.50;;;10.71;99.97
7662;BME280;30314;48.184;11.510;2022-09-21T09:20:13;96760.88;;;10.89;100.00
7662;BME280;30314;48.184;11.510;2022-09-21T09:22:44;96768.25;;;10.92;98.57
7662;BME280;30314;48.184;11.510;2022-09-21T09:25:19;96760.03;;;10.93;97.88
7662;BME280;30314;48.184;11.510;2022-09-21T09:27:50;96767.44;;;10.91;94.09
7662;BME280;30314;48.184;11.510;2022-09-21T09:30:20;96763.22;;;10.90;93.83
7662;BME280;30314;48.184;11.510;2022-09-21T09:32:54;96767.47;;;10.96;91.71
7662;BME280;30314;48.184;11.510;2022-09-21T09:35:27;96773.25;;;11.09;94.24
7662;BME280;30314;48.184;11.510;2022-09-21T09:37:59;96761.38;;;10.85;93.85
7662;BME280;30314;48.184;11.510;2022-09-21T09:40:45;96747.94;;;10.66;95.30
7662;BME280;30314;48.184;11.510;2022-09-21T09:43:24;96765.06;;;10.95;86.16
7662;BME280;30314;48.184;11.510;2022-09-21T09:46:01;96756.09;;;10.85;91.39
7662;BME280;30314;48.184;11.510;2022-09-21T09:48:44;96748.69;;;10.88;91.71
7662;BME280;30314;48.184;11.510;2022-09-21T09:51:19;96743.97;;;10.79;94.13
7662;BME280;30314;48.184;11.510;2022-09-21T09:53:47;96753.19;;;10.87;94.01
7662;BME280;30314;48.184;11.510;2022-09-21T09:56:17;96751.31;;;10.93;91.09
7662;BME280;30314;48.184;11.510;2022-09-21T09:58:48;96738.91;;;10.88;94.15
7662;BME280;30314;48.184;11.510;2022-09-21T10:01:37;96738.88;;;10.98;90.76
7662;BME280;30314;48.184;11.510;2022-09-21T10:04:09;96736.94;;;11.14;91.80
7662;BME280;30314;48.184;11.510;2022-09-21T10:06:37;96734.22;;;11.30;88.77
7662;BME280;30314;48.184;11.510;2022-09-21T10:09:21;96736.19;;;11.59;80.74
7662;BME280;30314;48.184;11.510;2022-09-21T10:11:51;96735.06;;;11.70;80.02
7662;BME280;30314;48.184;11.510;2022-09-21T10:14:21;96740.88;;;11.67;80.22
7662;BME280;30314;48.184;11.510;2022-09-21T10:16:51;96743.44;;;11.83;73.50
7662;BME280;30314;48.184;11.510;2022-09-21T10:19:22;96709.22;;;11.87;78.23
7662;BME280;30314;48.184;11.510;2022-09-21T10:21:55;96711.34;;;11.84;78.39
7662;BME280;30314;48.184;11.510;2022-09-21T10:24:25;96728.44;;;12.08;76.21
7662;BME280;30314;48.184;11.510;2022-09-21T10:27:02;96720.38;;;12.18;72.50
7662;BME280;30314;48.184;11.510;2022-09-21T10:29:38;96716.81;;;12.33;71.90
7662;BME280;30314;48.184;11.510;2022-09-21T10:32:19;96723.13;;;12.37;68.51
7662;BME280;30314;48.184;11.510;2022-09-21T10:35:13;96715.75;;;12.34;70.99
7662;BME280;30314;48.184;11.510;2022-09-21T10:37:44;96714.56;;;12.21;71.28
7662;BME280;30314;48.184;11.510;2022-09-21T10:40:25;96713.91;;;12.35;75.77
7662;BME280;30314;48.184;11.510;2022-09-21T10:42:58;96717.22;;;12.16;76.86
7662;BME280;30314;48.184;11.510;2022-09-21T10:45:27;96708.88;;;12.33;69.62
7662;BME280;30314;48.184;11.510;2022-09-21T10:47:57;96714.16;;;12.33;70.35
7662;BME280;30314;48.184;11.510;2022-09-21T10:50:28;96713.00;;;12.45;69.80
7662;BME280;30314;48.184;11.510;2022-09-21T10:52:59;96706.97;;;12.34;76.33
7662;BME280;30314;48.184;11.510;2022-09-21T10:55:29;96710.69;;;12.62;75.77
7662;BME280;30314;48.184;11.510;2022-09-21T10:57:58;96700.88;;;12.63;77.24
7662;BME280;30314;48.184;11.510;2022-09-21T11:00:30;96709.72;;;12.77;72.89
7662;BME280;30314;48.184;11.510;2022-09-21T11:05:49;96681.31;;;13.21;73.26
7662;BME280;30314;48.184;11.510;2022-09-21T11:08:21;96683.25;;;13.16;76.63
7662;BME280;30314;48.184;11.510;2022-09-21T11:11:00;96696.22;;;13.17;73.69
7662;BME280;30314;48.184;11.510;2022-09-21T11:13:34;96698.84;;;12.98;76.60
7662;BME280;30314;48.184;11.510;2022-09-21T11:16:10;96696.78;;;12.95;77.61
7662;BME280;30314;48.184;11.510;2022-09-21T11:18:47;96696.09;;;13.08;75.93
7662;BME280;30314;48.184;11.510;2022-09-21T11:21:25;96697.91;;;13.32;76.34
7662;BME280;30314;48.184;11.510;2022-09-21T11:24:01;96697.53;;;13.39;70.33
7662;BME280;30314;48.184;11.510;2022-09-21T11:26:34;96698.41;;;13.34;74.40
7662;BME280;30314;48.184;11.510;2022-09-21T11:29:13;96692.44;;;13.43;74.41
7662;BME280;30314;48.184;11.510;2022-09-21T11:31:54;96673.31;;;13.46;70.29
7662;BME280;30314;48.184;11.510;2022-09-21T11:34:48;96678.09;;;13.24;73.21
7662;BME280;30314;48.184;11.510;2022-09-21T11:37:46;96679.28;;;13.13;74.73
7662;BME280;30314;48.184;11.510;2022-09-21T11:40:26;96678.19;;;12.95;76.02
7662;BME280;30314;48.184;11.510;2022-09-21T11:43:07;96677.44;;;12.94;76.16
7662;BME280;30314;48.184;11.510;2022-09-21T11:45:49;96660.66;;;12.75;78.62
7662;BME280;30314;48.184;11.510;2022-09-21T11:48:33;96666.81;;;12.70;72.47
7662;BME280;30314;48.184;11.510;2022-09-21T11:51:12;96667.72;;;12.60;77.94
7662;BME280;30314;48.184;11.510;2022-09-21T11:54:02;96665.34;;;12.34;80.45
7662;BME280;30314;48.184;11.510;2022-09-21T11:56:41;96657.13;;;12.36;78.67
7662;BME280;30314;48.184;11.510;2022-09-21T11:59:48;96663.44;;;12.40;77.93
7662;BME280;30314;48.184;11.510;2022-09-21T12:02:35;96658.66;;;12.12;80.71
7662;BME280;30314;48.184;11.510;2022-09-21T12:05:14;96655.19;;;12.17;83.21
7662;BME280;30314;48.184;11.510;2022-09-21T12:08:11;96650.38;;;12.19;76.70
7662;BME280;30314;48.184;11.510;2022-09-21T12:10:51;96647.88;;;12.09;78.24
7662;BME280;30314;48.184;11.510;2022-09-21T12:13:28;96645.16;;;12.14;81.64
7662;BME280;30314;48.184;11.510;2022-09-21T12:16:05;96643.69;;;12.27;79.24
7662;BME280;30314;48.184;11.510;2022-09-21T12:18:43;96641.91;;;12.47;78.09
7662;BME280;30314;48.184;11.510;2022-09-21T12:21:18;96638.22;;;12.43;76.73
7662;BME280;30314;48.184;11.510;2022-09-21T12:23:51;96631.41;;;12.36;74.22
7662;BME280;30314;48.184;11.510;2022-09-21T12:26:24;96636.19;;;12.34;76.96
7662;BME280;30314;48.184;11.510;2022-09-21T12:28:56;96636.59;;;12.22;73.51
7662;BME280;30314;48.184;11.510;2022-09-21T12:31:29;96638.19;;;12.23;72.79
7662;BME280;30314;48.184;11.510;2022-09-21T12:34:02;96637.03;;;12.30;72.34
7662;BME280;30314;48.184;11.510;2022-09-21T12:36:34;96644.28;;;12.48;74.48
7662;BME280;30314;48.184;11.510;2022-09-21T12:39:14;96636.19;;;12.59;73.32
7662;BME280;30314;48.184;11.510;2022-09-21T12:41:50;96635.75;;;12.51;74.49
7662;BME280;30314;48.184;11.510;2022-09-21T12:44:24;96618.97;;;12.32;72.76
7662;BME280;30314;48.184;11.510;2022-09-21T12:46:58;96615.72;;;12.16;75.14
7662;BME280;30314;48.184;11.510;2022-09-21T12:49:40;96629.16;;;12.24;76.89
7662;BME280;30314;48.184;11.510;2022-09-21T12:52:17;96624.63;;;12.25;75.65
7662;BME280;30314;48.184;11.510;2022-09-21T12:54:52;96630.16;;;12.29;73.49
7662;BME280;30314;48.184;11.510;2022-09-21T12:57:29;96633.13;;;12.46;71.14
7662;BME280;30314;48.184;11.510;2022-09-21T13:00:20;96630.72;;;12.50;68.56
7662;BME280;30314;48.184;11.510;2022-09-21T13:02:55;96628.78;;;12.55;67.51
7662;BME280;30314;48.184;11.510;2022-09-21T13:05:35;96628.78;;;12.55;70.01
7662;BME280;30314;48.184;11.510;2022-09-21T13:08:09;96628.78;;;12.55;68.96
7662;BME280;30314;48.184;11.510;2022-09-21T13:10:46;96632.03;;;12.52;66.90
7662;BME280;30314;48.184;11.510;2022-09-21T13:13:29;96629.41;;;12.47;71.41
7662;BME280;30314;48.184;11.510;2022-09-21T13:15:59;96624.16;;;12.42;70.92
7662;BME280;30314;48.184;11.510;2022-09-21T13:18:29;96625.75;;;12.43;66.04
7662;BME280;30314;48.184;11.510;2022-09-21T13:21:16;96629.53;;;12.37;67.38
7662;BME280;30314;48.184;11.510;2022-09-21T13:23:51;96618.78;;;12.28;68.41
7662;BME280;30314;48.184;11.510;2022-09-21T13:26:32;96625.47;;;12.20;70.41
7662;BME280;30314;48.184;11.510;2022-09-21T13:29:34;96624.09;;;12.28;67.43
7662;BME280;30314;48.184;11.510;2022-09-21T13:32:20;96618.97;;;12.32;68.57
7662;BME280;30314;48.184;11.510;2022-09-21T13:34:49;96611.88;;;12.51;65.85